Rechercher aéroport 
image banner adimage banner adimage banner ad
image banner ad

CA03 - Flying M

Situé à Planada, United States

ICAO - CA03, IATA -

Données fournies par Airmate  

Information générale

Coordonnées: N37°20'60" W120°17'39"
Élévation : 280 feet MSL.
Variation magnétique : 15° East
Voir autres Aéroports à California

Données opérationnelles

Special qualification required
Heure actuelle UTC:
Heure actuelle locale:
Météo à : KMCE - Merced Rgnl/Macready Field ( 21 km )
METAR: KMCE 262353Z AUTO 33006KT 10SM CLR 35/07 A2983 RMK AO2 SLP099 T03500072 10361 20300 56004
TAF: KMCE 262351Z 2700/2724 30007KT P6SM SCT250
Voir NOTAMs / SUP AIP / TFR affectant cet aéroport [VIEW]
Fréquences de communication: [VIEW]

Pistes:

Identifiant RWYQFULongueur (ft)Largeur (ft)SurfaceLDA (ft)
02300030ASPH
20300030ASPH

Coordonnées de l'aéroport

Adresse: Planada United States

Vue satellite de CA03